Bow, United Kingdom
Current Conditions -  °F | °C
As of 11:50 PM on Sunday 23 Nov 2014 (Local Time) from EGLC Reporting Station
Clear Clear  
Wind Chill: 39°   Ceiling: Unl
Heat Index: 43°   Visibility: 6mi
Dew Point: 37°   Wind: 6mph
Humidity: 81%   Direction: 280°W
Pressure: 30.18"   Gusts: NA
Location:  51.53°N, 0.03°W
Report Text: EGLC 232350Z AUTO 28005KT 9999 NCD 06/03 Q1022
Loading
Personal Weather Stations






























Interactive Weather Map New forecast layout! Learn more

10-Day Weather Forecast

Advertisements
Track Severe Weather on mobile